Aviation Digital Data Service (ADDS)

Output produced by METARs form (1615 UTC 01 October 2014)
found at http://www.aviationweather.gov/adds/metars/
 
KSFO 011510Z 0115/0218 VRB03KT P6SM SKC 
     FM011900 28009KT P6SM SKC 
     FM012300 29015KT P6SM SKC 
     FM020500 VRB04KT P6SM SKC